Time;durP1;ratioP1;P1;durP2;ratioP2;P2;SDS_P1;SDS_P2;PMS_P1;PMS_P2;Temp;Humidity;BMP_temperature;BMP_pressure;BME280_temperature;BME280_humidity;BME280_pressure;Samples;Min_cycle;Max_cycle;Signal;HPM_P1;HPM_P2
2023/09/15 00:00:20;;;;;;;4.90;2.30;;;10.20;76.50;;;;;;4993824;28;20976;-51
2023/09/15 00:02:47;;;;;;;2.13;1.93;;;10.20;72.10;;;;;;4996443;28;20517;-51
2023/09/15 00:05:15;;;;;;;4.47;2.40;;;10.20;20.90;;;;;;4997629;28;20503;-50
2023/09/15 00:07:41;;;;;;;3.63;3.27;;;10.10;21.00;;;;;;4999079;28;21048;-51
2023/09/15 00:10:11;;;;;;;2.00;1.80;;;10.10;20.10;;;;;;4995344;28;20527;-52
2023/09/15 00:12:39;;;;;;;11.80;2.90;;;10.10;73.60;;;;;;4998614;28;20543;-51
2023/09/15 00:15:07;;;;;;;2.50;2.30;;;10.10;20.60;;;;;;4999600;28;20499;-51
2023/09/15 00:17:36;;;;;;;4.10;2.13;;;10.00;72.60;;;;;;4997798;28;20479;-52
2023/09/15 00:20:09;;;;;;;3.00;1.87;;;10.00;20.20;;;;;;4996081;28;20827;-51
2023/09/15 00:22:35;;;;;;;2.93;2.50;;;10.10;75.00;;;;;;4999078;28;20483;-51
2023/09/15 00:25:03;;;;;;;2.53;1.90;;;10.00;74.80;;;;;;4997585;28;20459;-51
2023/09/15 00:27:30;;;;;;;1.93;1.80;;;10.00;86.80;;;;;;5002641;28;20519;-52
2023/09/15 00:29:58;;;;;;;3.33;2.30;;;10.00;92.00;;;;;;4997599;28;21222;-51
2023/09/15 00:32:25;;;;;;;2.63;2.43;;;10.00;99.90;;;;;;4998998;28;20558;-52
2023/09/15 00:34:51;;;;;;;2.13;1.90;;;10.00;94.40;;;;;;4995472;28;20461;-50
2023/09/15 00:37:18;;;;;;;3.30;2.30;;;10.00;95.60;;;;;;4997810;28;20487;-51
2023/09/15 00:39:44;;;;;;;2.90;2.17;;;9.90;99.90;;;;;;4994944;28;20467;-51
2023/09/15 00:42:11;;;;;;;2.97;2.10;;;9.90;99.90;;;;;;4997699;28;20574;-50
2023/09/15 00:44:37;;;;;;;2.40;2.20;;;9.90;99.90;;;;;;4998568;28;20455;-50
2023/09/15 00:47:06;;;;;;;2.43;2.23;;;9.90;99.90;;;;;;4998558;28;20511;-50
2023/09/15 00:49:32;;;;;;;2.70;2.43;;;9.90;99.90;;;;;;5001214;28;20460;-51
2023/09/15 00:51:59;;;;;;;6.20;2.50;;;9.90;99.90;;;;;;5000376;28;20550;-52
2023/09/15 00:54:26;;;;;;;3.90;2.33;;;9.90;99.90;;;;;;5001514;28;20551;-51
2023/09/15 00:56:52;;;;;;;3.90;2.40;;;9.90;99.90;;;;;;5002038;28;20943;-52
2023/09/15 00:59:20;;;;;;;4.67;2.50;;;9.90;99.90;;;;;;5000827;28;20456;-51
2023/09/15 01:01:47;;;;;;;2.47;2.27;;;9.90;99.90;;;;;;5000284;28;21461;-51
2023/09/15 01:04:17;;;;;;;4.53;2.47;;;9.90;99.90;;;;;;5001822;28;21225;-52
2023/09/15 01:06:46;;;;;;;4.30;2.43;;;9.80;99.90;;;;;;5003104;28;20511;-50
2023/09/15 01:09:13;;;;;;;2.80;2.60;;;9.90;99.90;;;;;;5000790;28;20491;-51
2023/09/15 01:11:39;;;;;;;3.40;2.40;;;9.80;99.90;;;;;;5002869;28;21301;-51
2023/09/15 01:14:06;;;;;;;2.30;1.70;;;9.80;99.90;;;;;;4998685;28;20490;-51
2023/09/15 01:16:38;;;;;;;2.73;2.40;;;9.80;99.90;;;;;;4998050;28;20563;-51
2023/09/15 01:19:25;;;;;;;5.63;2.50;;;9.80;99.90;;;;;;5003419;28;21010;-51
2023/09/15 01:22:22;;;;;;;2.13;1.93;;;9.80;99.90;;;;;;5001954;28;20475;-55
2023/09/15 01:25:09;;;;;;;2.87;2.50;;;9.80;99.90;;;;;;4994881;28;20527;-51
2023/09/15 01:28:08;;;;;;;7.33;2.30;;;9.70;99.90;;;;;;5000476;28;20508;-51
2023/09/15 01:30:37;;;;;;;4.17;2.50;;;9.70;99.90;;;;;;5000317;28;20554;-52
2023/09/15 01:33:06;;;;;;;3.10;2.23;;;9.70;99.90;;;;;;4999994;28;20492;-52
2023/09/15 01:35:33;;;;;;;5.23;1.90;;;9.70;99.90;;;;;;5000642;28;21023;-51
2023/09/15 01:38:00;;;;;;;2.33;2.13;;;9.70;99.90;;;;;;5000197;28;20515;-51
2023/09/15 01:40:26;;;;;;;8.57;2.50;;;9.70;99.90;;;;;;5004005;28;20463;-51
2023/09/15 01:42:55;;;;;;;9.30;2.27;;;9.70;99.90;;;;;;4999151;28;20578;-51
2023/09/15 01:45:21;;;;;;;4.27;2.07;;;9.70;99.90;;;;;;4999698;28;20456;-51
2023/09/15 01:47:50;;;;;;;2.30;2.10;;;9.60;99.90;;;;;;4997978;28;20571;-51
2023/09/15 01:50:17;;;;;;;3.20;1.90;;;9.60;99.90;;;;;;4998412;28;20517;-51
2023/09/15 01:52:44;;;;;;;2.80;2.13;;;9.60;99.90;;;;;;5002138;28;20550;-51
2023/09/15 01:55:11;;;;;;;2.00;1.83;;;9.60;99.90;;;;;;5011397;28;20495;-51
2023/09/15 01:57:38;;;;;;;3.37;2.30;;;9.70;99.90;;;;;;5000963;28;20591;-52
2023/09/15 02:00:07;;;;;;;4.27;2.47;;;9.70;99.90;;;;;;5000633;28;20548;-50
2023/09/15 02:02:34;;;;;;;4.80;2.63;;;9.70;99.90;;;;;;4999619;28;20478;-51
2023/09/15 02:05:02;;;;;;;4.50;2.50;;;9.60;99.90;;;;;;5000521;28;20991;-51
2023/09/15 02:07:29;;;;;;;2.30;2.10;;;9.60;99.90;;;;;;5000098;28;20483;-50
2023/09/15 02:09:55;;;;;;;7.43;2.67;;;9.60;99.90;;;;;;5002406;28;21349;-51
2023/09/15 02:12:22;;;;;;;2.40;1.77;;;9.60;99.90;;;;;;5000834;28;20540;-51
2023/09/15 02:14:48;;;;;;;4.70;2.57;;;9.60;99.90;;;;;;5002050;28;20988;-51
2023/09/15 02:17:15;;;;;;;2.00;1.90;;;9.50;99.90;;;;;;4999541;28;20566;-51
2023/09/15 02:19:42;;;;;;;2.30;2.10;;;9.50;99.90;;;;;;5000479;28;20518;-51
2023/09/15 02:22:10;;;;;;;2.90;2.20;;;9.50;99.90;;;;;;5009842;28;20512;-51
2023/09/15 02:24:37;;;;;;;2.33;2.13;;;9.50;99.90;;;;;;5001847;28;20487;-51
2023/09/15 02:27:04;;;;;;;10.70;2.13;;;9.50;99.90;;;;;;5000888;28;20585;-53
2023/09/15 02:29:31;;;;;;;4.20;2.47;;;9.50;99.90;;;;;;5000876;28;20569;-54
2023/09/15 02:31:58;;;;;;;7.03;3.60;;;9.40;99.90;;;;;;5003686;28;20536;-54
2023/09/15 02:34:24;;;;;;;5.23;2.13;;;9.50;99.90;;;;;;5004373;28;20595;-54
2023/09/15 02:36:51;;;;;;;2.60;2.40;;;9.50;99.90;;;;;;4996645;28;21080;-55
2023/09/15 02:39:18;;;;;;;2.73;2.53;;;9.50;99.90;;;;;;4999517;28;20562;-55
2023/09/15 02:41:45;;;;;;;2.13;2.03;;;9.50;99.90;;;;;;5001544;28;20594;-54
2023/09/15 02:44:11;;;;;;;2.67;2.47;;;9.50;99.90;;;;;;4997747;28;20527;-55
2023/09/15 02:46:38;;;;;;;3.47;2.30;;;9.50;99.90;;;;;;5002169;28;20564;-54
2023/09/15 02:49:05;;;;;;;7.40;2.47;;;9.40;99.90;;;;;;4998433;28;20571;-54
2023/09/15 02:51:31;;;;;;;3.10;2.80;;;9.50;99.90;;;;;;5000592;28;20473;-54
2023/09/15 02:53:59;;;;;;;4.23;2.10;;;9.40;99.90;;;;;;4999773;28;20576;-54
2023/09/15 02:56:27;;;;;;;5.10;2.20;;;9.50;99.90;;;;;;4998868;28;20559;-55
2023/09/15 02:58:54;;;;;;;5.60;2.40;;;9.40;99.90;;;;;;5001022;28;22362;-54
2023/09/15 03:01:21;;;;;;;5.23;2.80;;;9.30;99.90;;;;;;5003187;28;20593;-54
2023/09/15 03:03:48;;;;;;;6.20;2.50;;;9.40;99.90;;;;;;5007638;28;20549;-55
2023/09/15 03:06:15;;;;;;;4.93;2.43;;;9.40;99.90;;;;;;5006157;28;20491;-55
2023/09/15 03:08:41;;;;;;;4.07;3.00;;;9.40;99.90;;;;;;5002558;28;20600;-53
2023/09/15 03:11:12;;;;;;;3.90;2.73;;;9.40;99.90;;;;;;5006598;28;20562;-55
2023/09/15 03:13:40;;;;;;;3.40;2.47;;;9.30;99.90;;;;;;5011513;28;20505;-55
2023/09/15 03:16:11;;;;;;;2.60;2.30;;;9.30;99.90;;;;;;5003669;28;20483;-54
2023/09/15 03:18:38;;;;;;;2.53;2.33;;;9.30;99.90;;;;;;5006729;28;20797;-54
2023/09/15 03:21:05;;;;;;;2.90;2.30;;;9.30;99.90;;;;;;5005948;28;20541;-54
2023/09/15 03:23:32;;;;;;;3.33;2.83;;;9.30;99.90;;;;;;5006296;28;20569;-55
2023/09/15 03:26:02;;;;;;;2.63;2.43;;;9.30;99.90;;;;;;5003987;28;20467;-55
2023/09/15 03:28:31;;;;;;;5.77;2.80;;;9.30;99.90;;;;;;4999089;28;21075;-55
2023/09/15 03:30:59;;;;;;;2.50;2.30;;;9.30;99.90;;;;;;5004251;28;20461;-54
2023/09/15 03:33:25;;;;;;;3.80;2.57;;;9.30;99.90;;;;;;5001354;28;21349;-54
2023/09/15 03:35:52;;;;;;;4.90;2.43;;;9.20;99.90;;;;;;5002109;28;20467;-55
2023/09/15 03:38:19;;;;;;;3.53;2.50;;;9.20;99.90;;;;;;4996582;28;20491;-54
2023/09/15 03:40:45;;;;;;;4.90;2.30;;;9.20;99.90;;;;;;5000161;28;20486;-54
2023/09/15 03:43:12;;;;;;;4.90;2.67;;;9.20;97.50;;;;;;5004738;28;20561;-55
2023/09/15 03:45:38;;;;;;;2.67;2.30;;;9.10;92.60;;;;;;5003666;28;20513;-55
2023/09/15 03:48:06;;;;;;;3.90;2.90;;;9.20;95.30;;;;;;5000395;28;21089;-55
2023/09/15 03:50:33;;;;;;;8.63;2.80;;;9.10;99.90;;;;;;5001646;28;22008;-54
2023/09/15 03:53:00;;;;;;;2.63;2.43;;;9.10;99.90;;;;;;5007726;28;20550;-55
2023/09/15 03:55:26;;;;;;;3.90;2.37;;;9.20;99.90;;;;;;5008060;28;20486;-55
2023/09/15 03:57:53;;;;;;;3.40;2.73;;;9.10;99.90;;;;;;5010667;28;20898;-55
2023/09/15 04:00:21;;;;;;;5.33;2.70;;;9.10;99.90;;;;;;5003498;28;21029;-56
2023/09/15 04:02:48;;;;;;;3.30;2.60;;;9.10;99.90;;;;;;4997239;28;20591;-55
2023/09/15 04:05:16;;;;;;;4.53;2.50;;;9.10;98.20;;;;;;5012566;28;20549;-56
2023/09/15 04:07:43;;;;;;;4.87;2.73;;;9.10;99.90;;;;;;5015098;28;20482;-56
2023/09/15 04:10:10;;;;;;;2.57;2.37;;;9.00;99.90;;;;;;5007864;28;20900;-55
2023/09/15 04:12:36;;;;;;;4.20;2.50;;;9.00;99.90;;;;;;5009287;28;20977;-55
2023/09/15 04:15:04;;;;;;;5.93;2.80;;;9.00;99.90;;;;;;5006858;28;20559;-54
2023/09/15 04:17:31;;;;;;;4.60;3.10;;;9.00;99.90;;;;;;5001270;28;20479;-56
2023/09/15 04:19:58;;;;;;;8.10;2.50;;;9.00;99.90;;;;;;5009453;28;20957;-55
2023/09/15 04:22:26;;;;;;;2.97;2.67;;;9.00;99.90;;;;;;5012217;28;21118;-54
2023/09/15 04:24:53;;;;;;;3.70;2.40;;;9.00;99.90;;;;;;5029620;28;20510;-54
2023/09/15 04:27:19;;;;;;;5.23;2.83;;;9.00;99.90;;;;;;5023270;28;20474;-54
2023/09/15 04:29:55;;;;;;;4.63;2.90;;;9.00;99.90;;;;;;5013538;28;20989;-55
2023/09/15 04:32:22;;;;;;;2.80;2.57;;;9.00;99.90;;;;;;5008322;28;20442;-55
2023/09/15 04:34:50;;;;;;;3.70;2.80;;;9.10;99.90;;;;;;5009635;28;20456;-54
2023/09/15 04:37:17;;;;;;;7.77;2.87;;;9.10;99.90;;;;;;5010266;28;21009;-54
2023/09/15 04:39:44;;;;;;;3.47;2.90;;;9.10;99.90;;;;;;5017861;28;20575;-55
2023/09/15 04:42:12;;;;;;;2.87;2.67;;;9.10;99.90;;;;;;5013085;28;20483;-54
2023/09/15 04:44:38;;;;;;;12.00;2.77;;;9.10;99.90;;;;;;5013230;28;20463;-54
2023/09/15 04:47:05;;;;;;;3.17;2.87;;;9.10;99.90;;;;;;5011898;28;20617;-55
2023/09/15 04:49:32;;;;;;;3.43;2.47;;;9.20;99.90;;;;;;5020573;28;20487;-55
2023/09/15 04:51:59;;;;;;;4.70;2.90;;;9.20;99.90;;;;;;5012083;28;21022;-55
2023/09/15 04:54:26;;;;;;;5.23;3.40;;;9.20;99.90;;;;;;5023184;28;20483;-54
2023/09/15 04:56:54;;;;;;;3.70;3.07;;;9.20;99.90;;;;;;5014482;28;20561;-54
2023/09/15 04:59:21;;;;;;;3.67;3.37;;;9.30;99.90;;;;;;5015165;28;20447;-55
2023/09/15 05:01:48;;;;;;;4.00;2.90;;;9.30;99.90;;;;;;5011587;28;21033;-54
2023/09/15 05:04:14;;;;;;;3.57;3.20;;;9.30;99.90;;;;;;5012719;28;21027;-53
2023/09/15 05:06:41;;;;;;;6.40;3.40;;;9.30;99.90;;;;;;5012693;28;20674;-54
2023/09/15 05:09:09;;;;;;;3.83;2.83;;;9.30;99.90;;;;;;5014741;28;20473;-54
2023/09/15 05:11:35;;;;;;;5.40;2.90;;;9.30;99.90;;;;;;5008537;28;20475;-55
2023/09/15 05:14:03;;;;;;;3.00;2.80;;;9.40;99.90;;;;;;5012358;28;20546;-54
2023/09/15 05:16:30;;;;;;;2.80;2.60;;;9.40;99.90;;;;;;5005772;28;20480;-55
2023/09/15 05:18:57;;;;;;;2.90;2.60;;;9.40;99.90;;;;;;5011106;28;20463;-55
2023/09/15 05:21:23;;;;;;;2.97;2.67;;;9.40;99.90;;;;;;5012291;28;20876;-54
2023/09/15 05:23:50;;;;;;;3.30;2.60;;;9.40;99.90;;;;;;5008837;28;20562;-53
2023/09/15 05:26:16;;;;;;;4.63;3.23;;;9.50;99.90;;;;;;5009556;28;20554;-54
2023/09/15 05:28:43;;;;;;;6.77;3.13;;;9.40;99.90;;;;;;5014112;28;20989;-54
2023/09/15 05:31:12;;;;;;;5.63;3.00;;;9.50;99.90;;;;;;5005916;28;20492;-54
2023/09/15 05:33:38;;;;;;;4.40;3.53;;;9.50;99.90;;;;;;5011968;28;20463;-54
2023/09/15 05:36:06;;;;;;;4.83;3.13;;;9.60;99.90;;;;;;5012544;28;20448;-54
2023/09/15 05:38:32;;;;;;;2.80;2.60;;;9.60;99.90;;;;;;5015412;28;20482;-54
2023/09/15 05:40:59;;;;;;;3.30;3.10;;;9.70;99.90;;;;;;5012190;28;21024;-55
2023/09/15 05:43:26;;;;;;;5.53;3.87;;;9.70;99.90;;;;;;5021032;28;20569;-55
2023/09/15 05:45:52;;;;;;;3.80;3.20;;;9.80;99.90;;;;;;5014626;28;20476;-54
2023/09/15 05:48:22;;;;;;;3.87;3.50;;;9.80;99.90;;;;;;5007010;28;20607;-55
2023/09/15 05:50:49;;;;;;;3.80;3.50;;;9.90;99.90;;;;;;5005310;28;20559;-54
2023/09/15 05:53:16;;;;;;;9.73;3.37;;;10.00;99.90;;;;;;5015243;28;20460;-55
2023/09/15 05:55:43;;;;;;;3.60;3.30;;;10.10;99.90;;;;;;5008244;28;20472;-54
2023/09/15 05:58:09;;;;;;;6.10;3.63;;;10.20;99.90;;;;;;5010693;28;20487;-53
2023/09/15 06:00:36;;;;;;;7.20;3.53;;;10.40;99.90;;;;;;5011671;28;20552;-52
2023/09/15 06:03:03;;;;;;;6.47;3.13;;;10.50;99.90;;;;;;5011904;28;22085;-53
2023/09/15 06:05:31;;;;;;;4.03;2.97;;;10.50;99.90;;;;;;5009144;28;20559;-53
2023/09/15 06:07:57;;;;;;;3.70;3.33;;;10.60;99.90;;;;;;5007650;28;20479;-53
2023/09/15 06:10:24;;;;;;;4.83;3.33;;;10.60;99.90;;;;;;5009770;28;20491;-53
2023/09/15 06:12:50;;;;;;;4.83;3.60;;;10.70;99.90;;;;;;5010985;28;21008;-52
2023/09/15 06:15:17;;;;;;;9.37;3.80;;;10.80;99.90;;;;;;5016371;28;20499;-54
2023/09/15 06:17:44;;;;;;;5.10;3.70;;;10.90;99.90;;;;;;5002969;28;20506;-52
2023/09/15 06:20:11;;;;;;;5.57;4.20;;;11.00;99.90;;;;;;5011924;28;20547;-52
2023/09/15 06:22:39;;;;;;;5.90;3.57;;;11.10;99.90;;;;;;5003909;28;20515;-53
2023/09/15 06:25:06;;;;;;;4.77;3.53;;;11.20;99.90;;;;;;5012630;28;20475;-53
2023/09/15 06:27:33;;;;;;;4.40;3.57;;;11.30;99.90;;;;;;5013028;28;20526;-52
2023/09/15 06:30:00;;;;;;;5.17;4.00;;;11.50;99.90;;;;;;5010658;28;20460;-54
2023/09/15 06:32:26;;;;;;;10.20;4.30;;;11.60;99.90;;;;;;5011813;28;20538;-53
2023/09/15 06:34:53;;;;;;;4.60;3.50;;;11.70;99.90;;;;;;5021093;28;20471;-53
2023/09/15 06:37:19;;;;;;;4.23;3.50;;;11.80;99.90;;;;;;5014184;28;20510;-53
2023/09/15 06:39:47;;;;;;;3.23;3.03;;;11.90;99.90;;;;;;5011824;28;21050;-52
2023/09/15 06:42:14;;;;;;;5.90;3.40;;;12.10;99.90;;;;;;5019518;28;20494;-53
2023/09/15 06:44:40;;;;;;;4.03;3.63;;;12.20;99.90;;;;;;5016251;28;20829;-53
2023/09/15 06:47:07;;;;;;;5.43;3.77;;;12.40;99.90;;;;;;5011223;28;20514;-52
2023/09/15 06:49:34;;;;;;;3.80;3.10;;;12.50;99.90;;;;;;5012472;28;20467;-52
2023/09/15 06:52:00;;;;;;;4.00;3.00;;;12.70;99.90;;;;;;5010787;28;20884;-53
2023/09/15 06:54:27;;;;;;;4.20;3.00;;;12.80;99.90;;;;;;5007720;28;20483;-53
2023/09/15 06:56:55;;;;;;;6.83;3.67;;;12.90;99.90;;;;;;5005297;28;20578;-53
2023/09/15 06:59:21;;;;;;;5.10;3.50;;;13.10;99.90;;;;;;5008532;28;20494;-53
2023/09/15 07:01:48;;;;;;;3.20;2.90;;;13.20;99.90;;;;;;5008379;28;20550;-53
2023/09/15 07:04:14;;;;;;;4.53;2.77;;;13.30;99.90;;;;;;5015282;28;20891;-54
2023/09/15 07:06:41;;;;;;;5.33;3.70;;;13.40;99.90;;;;;;5009541;28;20518;-53
2023/09/15 07:09:08;;;;;;;3.90;3.00;;;13.50;99.90;;;;;;5008134;28;20468;-55
2023/09/15 07:11:34;;;;;;;5.50;3.20;;;13.60;99.90;;;;;;5000613;28;20547;-53
2023/09/15 07:14:02;;;;;;;4.30;3.47;;;13.70;99.90;;;;;;5015706;28;20527;-53
2023/09/15 07:16:29;;;;;;;4.07;3.13;;;13.90;99.90;;;;;;5011761;28;20521;-53
2023/09/15 07:18:55;;;;;;;6.37;3.90;;;14.10;99.90;;;;;;5004946;28;20463;-53
2023/09/15 07:21:22;;;;;;;9.27;3.57;;;14.40;99.90;;;;;;5013245;28;21001;-53
2023/09/15 07:23:48;;;;;;;4.30;2.97;;;14.50;99.90;;;;;;5002184;28;20479;-53
2023/09/15 07:26:15;;;;;;;6.27;3.47;;;14.60;99.90;;;;;;5002262;28;20524;-52
2023/09/15 07:28:42;;;;;;;7.23;3.67;;;14.90;23.90;;;;;;5006845;28;20481;-52
2023/09/15 07:31:11;;;;;;;4.73;3.70;;;15.00;25.50;;;;;;5000316;28;20506;-53
2023/09/15 07:33:37;;;;;;;6.47;3.50;;;15.10;35.30;;;;;;5003116;28;20547;-53
2023/09/15 07:36:05;;;;;;;7.50;3.60;;;15.30;50.10;;;;;;5005413;28;20555;-54
2023/09/15 07:38:32;;;;;;;5.90;3.40;;;15.40;56.00;;;;;;5004631;28;20671;-53
2023/09/15 07:40:59;;;;;;;4.40;3.73;;;15.50;59.20;;;;;;5006468;28;20473;-53
2023/09/15 07:43:26;;;;;;;6.37;3.37;;;15.60;59.80;;;;;;5008084;28;21004;-54
2023/09/15 07:45:52;;;;;;;3.20;2.90;;;15.60;66.20;;;;;;5008547;28;20470;-52
2023/09/15 07:48:21;;;;;;;4.90;3.40;;;15.70;68.80;;;;;;5009549;28;21044;-52
2023/09/15 07:50:48;;;;;;;3.87;3.53;;;15.80;67.60;;;;;;5002335;28;20447;-53
2023/09/15 07:53:15;;;;;;;3.20;2.90;;;15.90;84.20;;;;;;5013779;28;20995;-53
2023/09/15 07:55:41;;;;;;;10.40;3.50;;;16.00;79.20;;;;;;5008106;28;20468;-53
2023/09/15 07:58:08;;;;;;;6.43;3.97;;;16.10;83.40;;;;;;5000149;28;20553;-56
2023/09/15 08:00:34;;;;;;;4.47;3.30;;;16.30;84.90;;;;;;5003353;28;20548;-53
2023/09/15 08:03:01;;;;;;;15.10;4.50;;;16.50;87.70;;;;;;5003745;28;20599;-53
2023/09/15 08:05:30;;;;;;;4.77;3.80;;;16.60;99.90;;;;;;5011205;28;20502;-53
2023/09/15 08:07:57;;;;;;;7.30;3.90;;;16.70;99.90;;;;;;5006160;28;20491;-52
2023/09/15 08:10:23;;;;;;;7.17;3.70;;;16.90;99.90;;;;;;5016285;28;20440;-53
2023/09/15 08:12:52;;;;;;;5.60;3.60;;;16.90;99.90;;;;;;5005113;28;20468;-53
2023/09/15 08:15:19;;;;;;;5.13;3.90;;;17.00;99.90;;;;;;5000576;28;20969;-53
2023/09/15 08:17:46;;;;;;;7.33;3.97;;;17.10;99.90;;;;;;5008590;28;20566;-52
2023/09/15 08:20:13;;;;;;;8.53;3.90;;;17.00;99.90;;;;;;5012431;28;20431;-53
2023/09/15 08:22:42;;;;;;;8.73;3.93;;;17.10;99.90;;;;;;5010293;28;20519;-53
2023/09/15 08:25:10;;;;;;;4.33;4.03;;;17.20;99.90;;;;;;5018207;28;20574;-52
2023/09/15 08:27:37;;;;;;;6.70;3.67;;;17.30;99.90;;;;;;5016392;28;21053;-53
2023/09/15 08:30:04;;;;;;;7.20;4.17;;;17.40;99.90;;;;;;5012181;28;20630;-52
2023/09/15 08:32:32;;;;;;;6.97;3.73;;;17.40;99.90;;;;;;5028857;28;20452;-52
2023/09/15 08:34:58;;;;;;;6.67;4.50;;;17.60;99.90;;;;;;5026301;28;20455;-53
2023/09/15 08:37:25;;;;;;;5.30;3.60;;;17.70;99.90;;;;;;5034762;28;20498;-53
2023/09/15 08:39:53;;;;;;;4.83;3.50;;;17.70;99.90;;;;;;5017937;28;20468;-53
2023/09/15 08:42:24;;;;;;;8.50;3.93;;;17.80;99.90;;;;;;5017905;28;20492;-52
2023/09/15 08:44:52;;;;;;;4.73;3.20;;;18.00;99.90;;;;;;5012317;28;20591;-52
2023/09/15 08:47:20;;;;;;;11.60;3.97;;;18.10;99.90;;;;;;5014088;28;20935;-53
2023/09/15 08:49:47;;;;;;;7.43;3.43;;;18.20;99.90;;;;;;5012205;28;20467;-53
2023/09/15 08:52:16;;;;;;;6.77;3.53;;;18.30;99.90;;;;;;5012289;28;20539;-52
2023/09/15 08:54:43;;;;;;;3.87;3.23;;;18.50;99.90;;;;;;5010540;28;20442;-53
2023/09/15 08:57:11;;;;;;;6.77;3.63;;;18.70;99.90;;;;;;5009053;28;20585;-53
2023/09/15 08:59:39;;;;;;;3.30;3.00;;;18.90;99.90;;;;;;5009159;28;20985;-53
2023/09/15 09:02:08;;;;;;;5.30;3.60;;;19.00;99.90;;;;;;5013255;28;20546;-52
2023/09/15 09:04:35;;;;;;;8.40;2.70;;;19.10;99.90;;;;;;5014525;28;20959;-52
2023/09/15 09:07:03;;;;;;;5.70;3.60;;;19.10;99.90;;;;;;5002974;28;20575;-53
2023/09/15 09:09:31;;;;;;;6.77;2.87;;;18.90;99.90;;;;;;5006249;28;20443;-52
2023/09/15 09:11:58;;;;;;;4.40;3.30;;;18.90;95.80;;;;;;5004249;28;20567;-52
2023/09/15 09:14:25;;;;;;;3.23;2.80;;;19.10;99.90;;;;;;5016545;28;20462;-53
2023/09/15 09:16:53;;;;;;;8.20;2.90;;;19.20;83.80;;;;;;5012394;28;20558;-53
2023/09/15 09:19:20;;;;;;;3.97;2.93;;;19.30;99.50;;;;;;5002644;28;20495;-53
2023/09/15 09:21:46;;;;;;;5.20;2.97;;;19.50;99.90;;;;;;5016292;28;20554;-53
2023/09/15 09:24:14;;;;;;;4.47;3.13;;;19.60;99.90;;;;;;5000822;28;20603;-54
2023/09/15 09:26:41;;;;;;;4.43;3.10;;;19.70;44.70;;;;;;5005869;28;20481;-53
2023/09/15 09:29:08;;;;;;;4.00;3.60;;;19.60;74.90;;;;;;5012858;28;20578;-53
2023/09/15 09:31:35;;;;;;;5.83;3.27;;;19.70;67.70;;;;;;5009799;28;20913;-53
2023/09/15 09:34:02;;;;;;;7.80;3.23;;;19.70;78.20;;;;;;5005826;28;20482;-53
2023/09/15 09:36:29;;;;;;;4.33;2.80;;;19.90;82.90;;;;;;5004436;28;20985;-52
2023/09/15 09:38:56;;;;;;;7.10;2.90;;;20.00;80.80;;;;;;5012684;28;20491;-53
2023/09/15 09:41:24;;;;;;;5.63;3.83;;;20.10;99.80;;;;;;4996681;28;20462;-53
2023/09/15 09:43:51;;;;;;;9.27;3.40;;;20.20;96.60;;;;;;4998445;28;20488;-53
2023/09/15 09:46:20;;;;;;;7.83;3.83;;;20.20;99.90;;;;;;5005742;28;20483;-52
2023/09/15 09:48:48;;;;;;;4.80;3.10;;;20.20;99.90;;;;;;4996011;28;20500;-53
2023/09/15 09:51:16;;;;;;;5.83;2.90;;;20.30;99.90;;;;;;5005754;28;20467;-53
2023/09/15 09:53:43;;;;;;;3.10;2.90;;;20.50;99.90;;;;;;5014486;28;21040;-52
2023/09/15 09:56:10;;;;;;;5.00;2.77;;;20.70;99.90;;;;;;5009923;28;20479;-54
2023/09/15 09:58:38;;;;;;;5.13;2.77;;;20.80;99.90;;;;;;5000069;28;20483;-53
2023/09/15 10:01:06;;;;;;;3.50;3.20;;;20.70;99.90;;;;;;5005090;28;20503;-52
2023/09/15 10:03:32;;;;;;;5.60;3.37;;;20.70;99.90;;;;;;5012290;28;20962;-54
2023/09/15 10:06:01;;;;;;;3.73;2.90;;;20.70;99.90;;;;;;5006098;28;20563;-52
2023/09/15 10:08:29;;;;;;;5.77;3.43;;;20.90;99.90;;;;;;5013146;28;20562;-52
2023/09/15 10:10:56;;;;;;;4.90;2.97;;;21.20;99.90;;;;;;5012675;28;20445;-53
2023/09/15 10:13:24;;;;;;;7.13;2.97;;;21.40;99.90;;;;;;5018260;28;20463;-55
2023/09/15 10:15:53;;;;;;;3.40;3.10;;;21.70;99.90;;;;;;5015141;28;20476;-53
2023/09/15 10:18:20;;;;;;;2.73;2.47;;;22.30;99.90;;;;;;5004413;28;20933;-53
2023/09/15 10:20:50;;;;;;;6.00;2.87;;;22.40;99.90;;;;;;5009182;28;20529;-53
2023/09/15 10:23:18;;;;;;;2.73;2.53;;;22.30;99.90;;;;;;5012298;28;20459;-53
2023/09/15 10:25:48;;;;;;;10.60;3.30;;;22.50;99.90;;;;;;5015999;28;20539;-53
2023/09/15 10:28:17;;;;;;;6.20;2.67;;;22.50;1.40;;;;;;5011595;28;20484;-52
2023/09/15 10:30:44;;;;;;;3.93;2.97;;;22.50;99.90;;;;;;5000952;28;20457;-53
2023/09/15 10:33:11;;;;;;;6.80;3.07;;;22.20;99.90;;;;;;5010589;28;20897;-53
2023/09/15 10:35:39;;;;;;;3.50;3.20;;;22.30;99.90;;;;;;5007774;28;20476;-53
2023/09/15 10:38:06;;;;;;;4.60;2.80;;;22.50;99.90;;;;;;4998766;28;20855;-53
2023/09/15 10:40:46;;;;;;;3.33;2.30;;;22.30;99.90;;;;;;4999236;28;20492;-52
2023/09/15 10:43:13;;;;;;;3.33;2.40;;;22.30;99.90;;;;;;5010682;28;20455;-53
2023/09/15 10:45:40;;;;;;;4.43;2.90;;;22.60;99.90;;;;;;5011960;28;20574;-53
2023/09/15 10:48:07;;;;;;;2.60;2.27;;;22.90;99.90;;;;;;5000609;28;20476;-53
2023/09/15 10:50:35;;;;;;;2.83;2.53;;;23.00;99.90;;;;;;5011788;28;20520;-53
2023/09/15 10:53:09;;;;;;;2.10;2.00;;;23.30;99.90;;;;;;5010633;28;20525;-53
2023/09/15 10:55:36;;;;;;;2.60;2.40;;;23.30;99.90;;;;;;5012449;28;20432;-52
2023/09/15 10:58:05;;;;;;;4.00;2.43;;;23.30;99.90;;;;;;5010471;28;20498;-53
2023/09/15 11:00:32;;;;;;;3.47;2.67;;;24.10;99.90;;;;;;5012273;28;20468;-53
2023/09/15 11:02:58;;;;;;;3.23;2.50;;;25.80;99.90;;;;;;5008584;28;20555;-52
2023/09/15 11:05:27;;;;;;;2.43;2.23;;;26.70;99.90;;;;;;5002877;28;20512;-53
2023/09/15 11:07:55;;;;;;;4.93;2.70;;;25.00;99.90;;;;;;5004993;28;20571;-52
2023/09/15 11:10:26;;;;;;;3.80;3.10;;;24.20;99.90;;;;;;5005088;28;20538;-54
2023/09/15 11:12:58;;;;;;;5.60;2.80;;;23.60;99.90;;;;;;4999888;28;20558;-53
2023/09/15 11:15:26;;;;;;;3.77;2.67;;;23.30;99.90;;;;;;4993216;28;20492;-52
2023/09/15 11:17:53;;;;;;;3.50;3.00;;;23.00;99.90;;;;;;5003351;28;20570;-53
2023/09/15 11:20:20;;;;;;;3.10;2.87;;;22.60;99.90;;;;;;4998114;28;20492;-53
2023/09/15 11:22:47;;;;;;;6.27;2.90;;;22.40;99.90;;;;;;5005152;28;20974;-53
2023/09/15 11:25:15;;;;;;;3.40;2.80;;;22.10;99.90;;;;;;5011834;28;20574;-52
2023/09/15 11:27:43;;;;;;;9.67;2.80;;;22.10;99.90;;;;;;5010149;28;20937;-52
2023/09/15 11:30:11;;;;;;;3.27;3.00;;;22.10;99.90;;;;;;5012308;28;20454;-52
2023/09/15 11:32:39;;;;;;;3.37;3.00;;;22.00;99.90;;;;;;5009540;28;20466;-53
2023/09/15 11:35:09;;;;;;;2.53;2.07;;;22.00;99.90;;;;;;5003643;28;20523;-53
2023/09/15 11:37:36;;;;;;;6.10;3.53;;;21.90;99.90;;;;;;5003219;28;20475;-54
2023/09/15 11:40:03;;;;;;;5.80;2.50;;;22.00;99.90;;;;;;4995320;28;20912;-53
2023/09/15 11:42:29;;;;;;;6.07;2.47;;;22.00;99.90;;;;;;5002036;28;20558;-53
2023/09/15 11:44:56;;;;;;;12.13;2.60;;;21.90;99.90;;;;;;5003952;28;20595;-52
2023/09/15 11:47:23;;;;;;;5.20;3.27;;;21.60;99.90;;;;;;4996219;28;20583;-52
2023/09/15 11:49:51;;;;;;;13.53;3.03;;;21.80;99.90;;;;;;5011730;28;20822;-53
2023/09/15 11:52:18;;;;;;;4.40;2.93;;;21.90;99.90;;;;;;5010026;28;20492;-57
2023/09/15 11:54:45;;;;;;;5.70;3.10;;;22.00;99.90;;;;;;5008108;28;20542;-53
2023/09/15 11:57:12;;;;;;;3.37;2.90;;;21.80;99.90;;;;;;5009860;28;20803;-51
2023/09/15 11:59:39;;;;;;;3.00;2.70;;;22.00;99.90;;;;;;5004979;28;20491;-50
2023/09/15 12:02:06;;;;;;;4.87;2.33;;;22.00;99.90;;;;;;5010171;28;20555;-50
2023/09/15 12:04:33;;;;;;;3.20;2.90;;;21.90;99.90;;;;;;4994814;28;20619;-50
2023/09/15 12:07:01;;;;;;;3.60;2.77;;;22.10;99.90;;;;;;5000904;28;20583;-50
2023/09/15 12:09:28;;;;;;;2.47;2.27;;;22.40;99.90;;;;;;5009209;28;20991;-49
2023/09/15 12:11:54;;;;;;;2.40;2.20;;;22.80;99.90;;;;;;5018209;28;20549;-51
2023/09/15 12:14:21;;;;;;;4.97;2.63;;;22.50;99.90;;;;;;5001026;28;20518;-50
2023/09/15 12:16:48;;;;;;;2.67;2.47;;;22.60;99.90;;;;;;5011186;28;20539;-50
2023/09/15 12:19:16;;;;;;;7.90;3.00;;;22.50;99.90;;;;;;5007219;28;21556;-51
2023/09/15 12:21:53;;;;;;;3.33;3.00;;;22.60;99.90;;;;;;5006353;28;20444;-51
2023/09/15 12:24:21;;;;;;;4.73;2.47;;;22.80;99.90;;;;;;5005938;28;20981;-50
2023/09/15 12:26:48;;;;;;;3.40;2.87;;;23.00;99.90;;;;;;4999529;28;20492;-51
2023/09/15 12:29:16;;;;;;;3.30;3.00;;;23.40;99.90;;;;;;4997304;28;21861;-51
2023/09/15 12:31:45;;;;;;;6.23;2.77;;;23.50;99.90;;;;;;5004353;28;20459;-50
2023/09/15 12:34:19;;;;;;;4.63;2.60;;;23.80;99.90;;;;;;5011031;28;20464;-51
2023/09/15 12:36:46;;;;;;;2.63;2.40;;;24.00;99.90;;;;;;5011262;28;20518;-52
2023/09/15 12:39:12;;;;;;;2.80;2.47;;;23.60;99.90;;;;;;5009166;28;20460;-52
2023/09/15 12:41:41;;;;;;;4.30;2.67;;;23.60;99.90;;;;;;5011096;28;20703;-52
2023/09/15 12:44:08;;;;;;;2.93;2.37;;;23.80;99.90;;;;;;4997612;28;20468;-50
2023/09/15 12:46:34;;;;;;;5.23;2.40;;;24.70;99.90;;;;;;5010852;28;20594;-50
2023/09/15 12:49:01;;;;;;;2.83;2.63;;;25.60;99.90;;;;;;4995776;28;20564;-51
2023/09/15 12:51:27;;;;;;;2.90;2.40;;;25.60;99.90;;;;;;5012247;28;20550;-50